Time;durP1;ratioP1;P1;durP2;ratioP2;P2;SDS_P1;SDS_P2;PMS_P1;PMS_P2;Temp;Humidity;BMP_temperature;BMP_pressure;BME280_temperature;BME280_humidity;BME280_pressure;Samples;Min_cycle;Max_cycle;Signal;HPM_P1;HPM_P2
2021/05/22 00:01:18;;;;;;;8.45;4.22;;;;;;;12.74;89.80;101444.01;1651101;86;21686;-76
2021/05/22 00:03:45;;;;;;;6.35;3.85;;;;;;;12.72;89.15;101444.13;1651132;86;21093;-74
2021/05/22 00:06:11;;;;;;;4.72;3.50;;;;;;;12.71;88.56;101442.90;1650926;86;21049;-71
2021/05/22 00:08:39;;;;;;;9.05;3.47;;;;;;;12.69;88.26;101442.17;1651046;86;21021;-71
2021/05/22 00:11:06;;;;;;;4.97;3.42;;;;;;;12.67;87.99;101447.92;1650997;86;21551;-73
2021/05/22 00:13:36;;;;;;;6.62;4.10;;;;;;;12.63;87.94;101442.55;1651242;86;21044;-72
2021/05/22 00:16:03;;;;;;;4.67;3.20;;;;;;;12.60;88.49;101443.56;1650875;86;21539;-74
2021/05/22 00:18:30;;;;;;;6.00;3.77;;;;;;;12.56;89.18;101443.40;1651293;86;21623;-75
2021/05/22 00:20:57;;;;;;;5.70;3.85;;;;;;;12.51;89.48;101444.59;1651090;86;21021;-75
2021/05/22 00:23:25;;;;;;;5.37;3.92;;;;;;;12.43;89.95;101439.03;1651232;86;21014;-75
2021/05/22 00:25:52;;;;;;;5.15;3.37;;;;;;;12.36;90.45;101443.77;1651005;86;20989;-75
2021/05/22 00:28:18;;;;;;;4.30;2.90;;;;;;;12.30;91.10;101443.31;1650841;86;21101;-75
2021/05/22 00:30:45;;;;;;;6.50;2.70;;;;;;;12.26;91.39;101440.52;1650846;86;20977;-75
2021/05/22 00:33:12;;;;;;;6.28;3.02;;;;;;;12.25;91.71;101437.09;1651069;86;20953;-74
2021/05/22 00:35:39;;;;;;;4.78;2.65;;;;;;;12.24;91.91;101441.08;1651158;86;20922;-75
2021/05/22 00:38:06;;;;;;;3.10;2.55;;;;;;;12.20;92.17;101446.47;1651359;86;21602;-74
2021/05/22 00:40:33;;;;;;;4.55;3.08;;;;;;;12.20;92.63;101452.14;1651015;86;21654;-74
2021/05/22 00:43:01;;;;;;;3.12;2.77;;;;;;;12.23;92.76;101456.31;1650858;86;21511;-74
2021/05/22 00:45:30;;;;;;;5.00;2.85;;;;;;;12.23;92.53;101451.11;1650850;86;20970;-74
2021/05/22 00:47:58;;;;;;;5.80;3.35;;;;;;;12.23;92.42;101455.02;1651029;86;21636;-75
2021/05/22 00:50:33;;;;;;;8.98;3.40;;;;;;;12.23;92.70;101448.05;1651208;86;21022;-75
2021/05/22 00:53:01;;;;;;;3.67;3.27;;;;;;;12.22;92.93;101454.66;1651047;86;21678;-75
2021/05/22 00:55:29;;;;;;;5.22;3.58;;;;;;;12.18;93.35;101456.61;1651260;86;20958;-75
2021/05/22 00:57:57;;;;;;;4.20;3.75;;;;;;;12.15;93.71;101462.84;1651113;86;21604;-74
2021/05/22 01:00:41;;;;;;;7.00;3.95;;;;;;;12.14;94.05;101467.66;1651203;86;21645;-75
2021/05/22 01:03:12;;;;;;;3.70;3.37;;;;;;;12.17;94.36;101466.63;1674993;85;21655;-74
2021/05/22 01:05:41;;;;;;;4.80;4.00;;;;;;;12.18;94.25;101469.62;1674891;85;21833;-74
2021/05/22 01:08:23;;;;;;;7.45;4.30;;;;;;;12.17;94.44;101470.08;1675119;85;21536;-74
2021/05/22 01:11:00;;;;;;;4.85;4.20;;;;;;;12.17;94.52;101473.98;1675358;85;20947;-74
2021/05/22 01:13:30;;;;;;;6.47;4.45;;;;;;;12.20;94.67;101476.86;1675266;85;21117;-73
2021/05/22 01:15:57;;;;;;;5.08;4.55;;;;;;;12.19;94.90;101473.41;1675329;85;21083;-74
2021/05/22 01:18:24;;;;;;;7.15;4.15;;;;;;;12.20;95.10;101474.25;1675196;85;21095;-74
2021/05/22 01:21:02;;;;;;;4.12;3.72;;;;;;;12.22;95.00;101476.78;1674978;85;21346;-74
2021/05/22 01:23:35;;;;;;;4.97;3.35;;;;;;;12.19;94.51;101469.51;1675191;85;20998;-74
2021/05/22 01:26:02;;;;;;;6.37;3.47;;;;;;;12.15;93.89;101473.25;1675129;85;21014;-73
2021/05/22 01:28:30;;;;;;;4.15;3.55;;;;;;;12.08;93.43;101469.78;1675389;85;20974;-73
2021/05/22 01:30:58;;;;;;;9.38;4.20;;;;;;;12.00;93.11;101475.43;1675615;85;21209;-74
2021/05/22 01:33:25;;;;;;;3.98;3.40;;;;;;;11.94;93.06;101473.66;1676949;85;21033;-74
2021/05/22 01:35:52;;;;;;;7.85;3.77;;;;;;;11.89;93.30;101471.34;1677097;85;21642;-74
2021/05/22 01:38:18;;;;;;;6.37;3.95;;;;;;;11.88;93.73;101473.55;1677236;85;21689;-74
2021/05/22 01:40:46;;;;;;;5.37;3.77;;;;;;;11.87;94.32;101465.37;1677360;85;21064;-74
2021/05/22 01:43:12;;;;;;;6.58;3.60;;;;;;;11.88;94.62;101478.76;1677109;85;21788;-73
2021/05/22 01:45:42;;;;;;;4.72;3.25;;;;;;;11.88;94.97;101470.95;1677178;85;20932;-73
2021/05/22 01:48:13;;;;;;;6.72;3.45;;;;;;;11.91;95.31;101472.53;1654053;85;21539;-71
2021/05/22 01:50:46;;;;;;;4.00;3.20;;;;;;;11.98;95.55;101471.25;1677135;85;20980;-73
2021/05/22 01:53:13;;;;;;;4.22;3.42;;;;;;;12.07;95.72;101467.64;1678022;85;21020;-73
2021/05/22 01:55:40;;;;;;;4.53;3.05;;;;;;;12.16;95.55;101474.05;1678497;85;21107;-72
2021/05/22 01:58:09;;;;;;;4.45;3.50;;;;;;;12.25;95.12;101475.30;1681318;84;21044;-73
2021/05/22 02:00:37;;;;;;;4.78;3.30;;;;;;;12.29;94.52;101482.80;1637222;85;20906;-74
2021/05/22 02:03:27;;;;;;;4.87;3.52;;;;;;;12.31;94.12;101478.83;1681814;84;21055;-73
2021/05/22 02:05:54;;;;;;;9.43;3.30;;;;;;;12.32;93.83;101483.92;1682036;85;20961;-74
2021/05/22 02:08:23;;;;;;;6.03;3.22;;;;;;;12.33;93.39;101488.66;1681404;84;21248;-71
2021/05/22 02:10:50;;;;;;;3.80;3.33;;;;;;;12.32;92.92;101493.03;1680732;85;21449;-70
2021/05/22 02:13:17;;;;;;;5.20;3.45;;;;;;;12.30;92.45;101494.90;1678780;85;21740;-69
2021/05/22 02:16:00;;;;;;;7.15;3.80;;;;;;;12.28;92.62;101491.56;1677155;85;21048;-73
2021/05/22 02:18:28;;;;;;;6.65;4.20;;;;;;;12.23;92.20;101492.28;1677479;85;21076;-70
2021/05/22 02:20:58;;;;;;;6.83;4.30;;;;;;;12.12;91.42;101492.10;1676832;85;21106;-71
2021/05/22 02:23:25;;;;;;;8.05;5.12;;;;;;;12.02;91.69;101502.21;1677149;85;20972;-72
2021/05/22 02:25:56;;;;;;;8.05;4.45;;;;;;;11.95;91.93;101505.25;1677203;85;21020;-73
2021/05/22 02:28:27;;;;;;;7.97;4.47;;;;;;;11.90;92.40;101505.99;1677591;85;21099;-73
2021/05/22 02:30:54;;;;;;;7.42;5.92;;;;;;;11.86;92.79;101503.19;1677221;83;21614;-73
2021/05/22 02:33:21;;;;;;;7.45;5.42;;;;;;;11.83;93.16;101512.47;1677042;85;21176;-73
2021/05/22 02:35:49;;;;;;;7.95;4.58;;;;;;;11.81;93.62;101509.09;1677202;85;20948;-72
2021/05/22 02:38:24;;;;;;;10.78;4.55;;;;;;;11.79;93.76;101499.26;1654238;85;21311;-71
2021/05/22 02:40:54;;;;;;;8.85;4.45;;;;;;;11.76;93.77;101506.78;1677254;85;21036;-73
2021/05/22 02:43:21;;;;;;;8.75;4.22;;;;;;;11.74;94.15;101506.05;1677017;85;21618;-70
2021/05/22 02:45:48;;;;;;;6.30;3.87;;;;;;;11.74;95.00;101507.80;1677150;85;21720;-78
2021/05/22 02:48:19;;;;;;;4.75;3.98;;;;;;;11.76;96.43;101506.78;1654162;85;21609;-70
2021/05/22 02:50:50;;;;;;;6.53;3.58;;;;;;;11.77;97.50;101504.56;1677239;85;21467;-70
2021/05/22 02:53:22;;;;;;;7.62;4.05;;;;;;;11.78;98.23;101510.58;1677332;85;21506;-72
2021/05/22 02:55:49;;;;;;;;;;;;;;;11.80;98.75;101512.19;1679738;85;20928;-72
2021/05/22 02:58:17;;;;;;;5.12;3.52;;;;;;;11.82;98.93;101509.48;1677137;85;21107;-71
2021/05/22 03:00:44;;;;;;;4.20;3.58;;;;;;;11.83;99.04;101517.21;1677064;85;20996;-72
2021/05/22 03:03:11;;;;;;;6.20;3.75;;;;;;;11.85;99.04;101519.25;1677083;85;21092;-70
2021/05/22 03:05:40;;;;;;;4.22;3.83;;;;;;;11.87;99.27;101513.97;1677242;85;21617;-72
2021/05/22 03:08:08;;;;;;;6.12;3.67;;;;;;;11.90;99.67;101515.91;1677237;85;20968;-71
2021/05/22 03:10:36;;;;;;;6.35;3.92;;;;;;;11.93;100.00;101511.86;1677214;85;21823;-72
2021/05/22 03:13:05;;;;;;;10.25;4.50;;;;;;;11.96;100.00;101519.48;1654389;85;21130;-74
2021/05/22 03:15:34;;;;;;;6.83;3.40;;;;;;;12.00;100.00;101517.52;1677298;85;21060;-72
2021/05/22 03:18:01;;;;;;;5.83;3.75;;;;;;;12.03;100.00;101514.27;1677234;85;21677;-74
2021/05/22 03:20:28;;;;;;;7.35;3.55;;;;;;;12.06;100.00;101513.28;1677364;85;20929;-72
2021/05/22 03:22:55;;;;;;;5.62;3.92;;;;;;;12.09;100.00;101515.70;1677174;85;21103;-73
2021/05/22 03:25:22;;;;;;;3.90;3.25;;;;;;;12.14;100.00;101521.45;1677405;85;21032;-74
2021/05/22 03:27:49;;;;;;;6.95;3.52;;;;;;;12.15;100.00;101517.48;1677079;85;20913;-72
2021/05/22 03:30:17;;;;;;;4.85;4.08;;;;;;;12.20;100.00;101528.90;1677066;85;21063;-74
2021/05/22 03:32:44;;;;;;;4.67;3.33;;;;;;;12.22;100.00;101532.23;1663240;85;20985;-73
2021/05/22 03:35:12;;;;;;;8.05;3.50;;;;;;;12.27;100.00;101531.98;1660507;86;21516;-74
2021/05/22 03:37:38;;;;;;;3.90;3.27;;;;;;;12.32;100.00;101537.28;1660332;86;21020;-72
2021/05/22 03:40:07;;;;;;;4.42;3.50;;;;;;;12.36;100.00;101545.74;1660455;86;21041;-72
2021/05/22 03:42:35;;;;;;;4.45;3.50;;;;;;;12.39;100.00;101550.77;1660652;86;21020;-72
2021/05/22 03:45:02;;;;;;;4.45;3.58;;;;;;;12.42;100.00;101546.67;1660286;86;21044;-74
2021/05/22 03:47:30;;;;;;;6.25;3.20;;;;;;;12.45;100.00;101555.14;1660638;86;21122;-74
2021/05/22 03:49:57;;;;;;;6.50;3.45;;;;;;;12.48;100.00;101553.66;1660443;86;21005;-72
2021/05/22 03:52:25;;;;;;;3.72;3.12;;;;;;;12.53;100.00;101549.49;1660465;86;21068;-74
2021/05/22 03:54:52;;;;;;;8.15;3.58;;;;;;;12.58;100.00;101544.83;1660502;86;21048;-74
2021/05/22 03:57:19;;;;;;;5.33;2.95;;;;;;;12.64;100.00;101545.76;1660501;86;20898;-74
2021/05/22 03:59:47;;;;;;;4.10;3.50;;;;;;;12.69;100.00;101547.18;1660207;86;21133;-74
2021/05/22 04:02:14;;;;;;;5.15;3.15;;;;;;;12.73;100.00;101547.34;1660678;86;21037;-74
2021/05/22 04:04:41;;;;;;;5.45;3.10;;;;;;;12.79;100.00;101559.18;1660637;86;21586;-74
2021/05/22 04:07:08;;;;;;;4.20;3.27;;;;;;;12.82;100.00;101552.48;1660525;86;21523;-74
2021/05/22 04:09:35;;;;;;;8.30;3.58;;;;;;;12.87;100.00;101550.88;1660379;86;21614;-74
2021/05/22 04:12:03;;;;;;;6.55;3.47;;;;;;;12.91;100.00;101554.52;1660171;86;21649;-74
2021/05/22 04:14:31;;;;;;;6.67;3.80;;;;;;;13.00;100.00;101563.52;1660381;86;21383;-73
2021/05/22 04:16:59;;;;;;;4.92;3.65;;;;;;;13.07;100.00;101559.16;1660150;86;21108;-74
2021/05/22 04:19:26;;;;;;;6.22;4.15;;;;;;;13.15;100.00;101558.69;1660437;86;21037;-70
2021/05/22 04:21:53;;;;;;;8.10;3.80;;;;;;;13.22;100.00;101559.98;1660559;86;20945;-70
2021/05/22 04:24:21;;;;;;;6.30;3.58;;;;;;;13.30;99.76;101564.73;1660365;86;21120;-74
2021/05/22 04:26:48;;;;;;;5.22;3.60;;;;;;;13.39;99.36;101564.98;1660338;86;20974;-72
2021/05/22 04:29:15;;;;;;;7.20;3.90;;;;;;;13.46;98.95;101565.44;1660445;86;21557;-71
2021/05/22 04:31:43;;;;;;;6.08;3.40;;;;;;;13.53;98.68;101564.92;1660334;85;21009;-72
2021/05/22 04:34:11;;;;;;;7.65;3.60;;;;;;;13.63;98.19;101572.53;1660354;86;20898;-73
2021/05/22 04:36:38;;;;;;;9.30;3.95;;;;;;;13.70;97.48;101571.21;1660390;86;21112;-76
2021/05/22 04:39:06;;;;;;;5.42;4.05;;;;;;;13.76;96.74;101572.12;1660331;86;20989;-72
2021/05/22 04:41:33;;;;;;;8.53;4.05;;;;;;;13.85;95.80;101579.00;1660384;86;21064;-74
2021/05/22 04:44:00;;;;;;;6.22;3.87;;;;;;;13.92;95.21;101576.33;1660359;86;21113;-79
2021/05/22 04:46:28;;;;;;;6.40;3.98;;;;;;;13.99;94.04;101577.61;1660544;86;21721;-69
2021/05/22 04:48:55;;;;;;;5.97;3.52;;;;;;;14.05;92.52;101574.12;1660406;86;21706;-72
2021/05/22 04:51:24;;;;;;;5.37;3.52;;;;;;;14.14;91.95;101580.50;1660301;86;21021;-72
2021/05/22 04:53:51;;;;;;;6.22;3.47;;;;;;;14.20;91.43;101576.17;1660390;86;20893;-73
2021/05/22 04:56:19;;;;;;;9.33;3.50;;;;;;;14.24;91.11;101583.72;1660508;86;21004;-73
2021/05/22 04:58:48;;;;;;;8.25;3.42;;;;;;;14.29;90.86;101589.45;1660381;86;20942;-73
2021/05/22 05:01:16;;;;;;;5.53;3.42;;;;;;;14.31;90.53;101583.69;1660321;86;21130;-73
2021/05/22 05:03:43;;;;;;;7.20;3.50;;;;;;;14.35;89.84;101581.73;1660217;86;21053;-74
2021/05/22 05:06:10;;;;;;;5.10;3.30;;;;;;;14.42;89.54;101590.00;1660515;86;20926;-73
2021/05/22 05:08:37;;;;;;;7.42;2.92;;;;;;;14.48;89.05;101590.42;1660589;86;21573;-73
2021/05/22 05:11:04;;;;;;;8.63;3.65;;;;;;;14.54;88.71;101597.00;1660360;86;21037;-74
2021/05/22 05:13:34;;;;;;;6.50;4.22;;;;;;;14.61;88.53;101595.19;1660484;86;21106;-72
2021/05/22 05:16:01;;;;;;;3.83;3.52;;;;;;;14.66;88.19;101591.78;1660180;86;21068;-69
2021/05/22 05:18:29;;;;;;;5.47;3.70;;;;;;;14.75;87.77;101596.37;1660708;86;21501;-70
2021/05/22 05:20:57;;;;;;;8.35;4.05;;;;;;;14.83;86.73;101594.55;1660515;86;21148;-73
2021/05/22 05:23:24;;;;;;;4.45;3.87;;;;;;;14.95;86.05;101603.31;1660458;86;21041;-71
2021/05/22 05:25:54;;;;;;;6.58;4.90;;;;;;;15.03;85.62;101601.02;1660468;86;21049;-74
2021/05/22 05:28:21;;;;;;;8.35;4.67;;;;;;;15.12;85.39;101599.06;1660473;86;21642;-73
2021/05/22 05:30:49;;;;;;;9.05;5.65;;;;;;;15.18;85.20;101600.77;1660953;86;20874;-70
2021/05/22 05:33:16;;;;;;;4.42;4.03;;;;;;;15.23;84.88;101601.27;1661510;86;21531;-74
2021/05/22 05:35:43;;;;;;;6.12;3.80;;;;;;;15.33;84.11;101603.61;1663379;86;21033;-74
2021/05/22 05:38:10;;;;;;;6.65;3.58;;;;;;;15.42;83.23;101607.34;1662401;86;21099;-72
2021/05/22 05:40:37;;;;;;;4.70;3.37;;;;;;;15.51;82.95;101608.02;1662654;86;20965;-71
2021/05/22 05:43:09;;;;;;;6.22;3.65;;;;;;;15.61;82.20;101610.34;1663648;86;20947;-75
2021/05/22 05:45:34;;;;;;;5.47;4.10;;;;;;;15.69;81.81;101609.34;1664423;86;20895;-72
2021/05/22 05:48:01;;;;;;;8.78;4.35;;;;;;;15.75;81.84;101611.50;1664308;86;21000;-74
2021/05/22 05:50:28;;;;;;;3.83;3.45;;;;;;;15.82;81.70;101611.43;1661299;86;21097;-74
2021/05/22 05:52:55;;;;;;;6.53;3.70;;;;;;;15.87;81.27;101604.53;1660335;86;21033;-73
2021/05/22 05:55:22;;;;;;;6.58;4.33;;;;;;;15.98;80.41;101603.28;1660621;86;21017;-74
2021/05/22 05:57:51;;;;;;;10.50;4.25;;;;;;;16.09;80.25;101595.92;1660325;86;21049;-73
2021/05/22 06:00:19;;;;;;;7.78;4.22;;;;;;;16.15;79.75;101600.23;1660748;86;21065;-74
2021/05/22 06:02:47;;;;;;;6.17;4.50;;;;;;;16.22;79.15;101608.47;1660499;86;21130;-71
2021/05/22 06:05:14;;;;;;;8.03;4.33;;;;;;;16.28;78.68;101600.99;1660329;86;21634;-69
2021/05/22 06:07:43;;;;;;;6.85;4.40;;;;;;;16.36;78.35;101605.67;1660549;86;21020;-70
2021/05/22 06:10:11;;;;;;;7.97;4.55;;;;;;;16.39;78.00;101607.59;1660445;86;21037;-71
2021/05/22 06:12:40;;;;;;;13.03;5.47;;;;;;;16.43;77.81;101604.73;1660455;86;20933;-72
2021/05/22 06:15:33;;;;;;;9.23;4.75;;;;;;;16.50;77.77;101606.75;1660334;86;21812;-73
2021/05/22 06:17:39;;;;;;;;;;;;;;;16.59;77.97;101603.46;1657326;86;20962;-69
2021/05/22 06:20:07;;;;;;;5.28;4.25;;;;;;;16.67;77.75;101608.13;1660607;86;20168;-72
2021/05/22 06:22:34;;;;;;;7.33;4.75;;;;;;;16.72;76.99;101601.58;1660510;86;21013;-69
2021/05/22 06:25:01;;;;;;;6.33;4.42;;;;;;;16.77;76.87;101594.21;1660462;85;21068;-72
2021/05/22 06:27:28;;;;;;;13.88;4.42;;;;;;;16.83;76.69;101598.14;1660713;86;21114;-69
2021/05/22 06:29:55;;;;;;;4.70;4.30;;;;;;;16.91;76.52;101598.40;1660479;86;21693;-73
2021/05/22 06:32:22;;;;;;;7.55;3.85;;;;;;;16.97;76.39;101596.61;1664643;84;21522;-75
2021/05/22 06:34:49;;;;;;;5.53;4.40;;;;;;;17.06;76.54;101592.42;1677338;85;20988;-75
2021/05/22 06:37:17;;;;;;;5.35;3.80;;;;;;;17.13;76.19;101595.77;1677027;85;20914;-72
2021/05/22 06:39:45;;;;;;;4.40;3.75;;;;;;;17.21;74.97;101602.54;1677269;85;21128;-73
2021/05/22 06:42:13;;;;;;;4.80;3.15;;;;;;;17.28;73.90;101593.71;1677260;85;21055;-75
2021/05/22 06:44:46;;;;;;;3.83;3.35;;;;;;;17.34;73.15;101591.44;1677373;85;20932;-72
2021/05/22 06:47:10;;;;;;;6.15;3.17;;;;;;;17.41;71.48;101591.78;1676490;84;21482;-69
2021/05/22 06:49:37;;;;;;;6.47;3.50;;;;;;;17.45;70.71;101592.70;1677271;85;20901;-71
2021/05/22 06:52:05;;;;;;;10.93;3.42;;;;;;;17.49;70.87;101594.61;1677017;85;21092;-75
2021/05/22 06:54:34;;;;;;;7.17;2.95;;;;;;;17.56;69.94;101600.23;1677372;85;21016;-71
2021/05/22 06:57:01;;;;;;;7.15;4.22;;;;;;;17.64;68.89;101601.31;1677155;85;21024;-73
2021/05/22 06:59:28;;;;;;;6.35;2.60;;;;;;;17.71;68.74;101598.52;1677236;85;21031;-73
2021/05/22 07:01:55;;;;;;;5.12;2.60;;;;;;;17.78;67.87;101597.07;1677267;85;21685;-75
2021/05/22 07:04:22;;;;;;;4.45;2.50;;;;;;;17.84;66.56;101591.31;1677234;85;21153;-72
2021/05/22 07:06:51;;;;;;;4.75;1.92;;;;;;;17.89;64.84;101588.33;1677186;85;20913;-70
2021/05/22 07:09:18;;;;;;;3.85;2.12;;;;;;;17.94;62.67;101588.30;1676821;85;21502;-71
2021/05/22 07:11:47;;;;;;;4.67;2.17;;;;;;;18.02;62.04;101584.21;1677252;85;20949;-72
2021/05/22 07:14:15;;;;;;;4.80;1.90;;;;;;;18.09;61.45;101580.13;1677082;85;20936;-72
2021/05/22 07:16:42;;;;;;;3.25;1.62;;;;;;;18.14;60.48;101583.19;1678054;85;21128;-74
2021/05/22 07:19:11;;;;;;;2.77;1.80;;;;;;;18.22;60.99;101583.41;1677399;85;21648;-72
2021/05/22 07:21:39;;;;;;;2.25;1.80;;;;;;;18.29;61.32;101581.91;1678266;85;20913;-75
2021/05/22 07:24:09;;;;;;;3.55;1.72;;;;;;;18.37;59.79;101582.95;1677650;85;20959;-72
2021/05/22 07:26:36;;;;;;;4.17;2.10;;;;;;;18.42;58.52;101575.50;1677810;85;21605;-73
2021/05/22 07:29:04;;;;;;;5.15;1.90;;;;;;;18.47;58.47;101576.44;1678236;85;21805;-73
2021/05/22 07:31:32;;;;;;;3.80;2.00;;;;;;;18.51;57.90;101580.98;1677256;85;21043;-72
2021/05/22 07:34:01;;;;;;;2.65;1.70;;;;;;;18.56;57.84;101579.63;1677036;85;21056;-76
2021/05/22 07:36:28;;;;;;;3.85;1.70;;;;;;;18.59;57.57;101579.36;1677195;85;20973;-75
2021/05/22 07:38:55;;;;;;;2.87;1.62;;;;;;;18.64;58.03;101577.64;1677329;85;21701;-75
2021/05/22 07:41:22;;;;;;;2.80;1.70;;;;;;;18.67;56.52;101578.22;1677300;85;21815;-73
2021/05/22 07:43:49;;;;;;;3.50;1.90;;;;;;;18.76;56.66;101576.11;1677451;85;20913;-76
2021/05/22 07:46:16;;;;;;;6.40;1.52;;;;;;;18.84;55.94;101577.61;1677113;85;21068;-70
2021/05/22 07:48:43;;;;;;;2.37;1.98;;;;;;;18.92;55.52;101579.59;1677254;85;21093;-78
2021/05/22 07:51:10;;;;;;;2.87;1.77;;;;;;;18.98;55.66;101574.61;1677362;85;20932;-74
2021/05/22 07:53:38;;;;;;;4.25;1.55;;;;;;;19.07;54.11;101576.10;1677381;85;21088;-75
2021/05/22 07:56:06;;;;;;;2.67;1.45;;;;;;;19.11;53.41;101581.45;1677222;85;21008;-76
2021/05/22 07:58:33;;;;;;;4.80;1.70;;;;;;;19.20;53.91;101581.96;1677264;85;21622;-70
2021/05/22 08:01:00;;;;;;;2.27;1.72;;;;;;;19.23;53.64;101575.95;1677261;85;20969;-76
2021/05/22 08:03:27;;;;;;;2.65;1.40;;;;;;;19.29;53.21;101585.09;1677309;85;20980;-74
2021/05/22 08:05:54;;;;;;;5.03;1.50;;;;;;;19.29;53.44;101583.78;1677179;85;21658;-76
2021/05/22 08:08:23;;;;;;;6.75;1.52;;;;;;;19.31;53.53;101581.84;1677077;85;21044;-73
2021/05/22 08:10:52;;;;;;;2.77;1.30;;;;;;;19.34;52.10;101581.56;1676836;85;21017;-74
2021/05/22 08:13:19;;;;;;;2.40;1.40;;;;;;;19.43;52.80;101586.08;1677103;85;20956;-69
2021/05/22 08:15:48;;;;;;;2.15;1.42;;;;;;;19.50;52.33;101583.22;1677011;85;21490;-75
2021/05/22 08:18:16;;;;;;;2.77;1.30;;;;;;;19.58;53.28;101584.70;1677244;85;21130;-72
2021/05/22 08:20:43;;;;;;;1.65;1.20;;;;;;;19.68;51.23;101578.13;1676948;85;21096;-80
2021/05/22 08:23:12;;;;;;;4.75;1.45;;;;;;;19.77;50.60;101578.62;1677246;85;21032;-81
2021/05/22 08:25:38;;;;;;;3.25;1.30;;;;;;;19.80;48.64;101579.66;1677213;85;21028;-72
2021/05/22 08:28:07;;;;;;;1.87;1.20;;;;;;;19.78;48.97;101570.59;1677234;85;21593;-72
2021/05/22 08:30:35;;;;;;;3.40;1.35;;;;;;;19.80;48.58;101563.85;1677270;85;21085;-69
2021/05/22 08:33:02;;;;;;;2.90;1.52;;;;;;;19.83;46.46;101566.20;1673192;84;21029;-77
2021/05/22 08:35:30;;;;;;;3.25;1.30;;;;;;;19.85;46.84;101572.99;1660466;86;21014;-77
2021/05/22 08:37:57;;;;;;;1.20;1.05;;;;;;;19.93;48.11;101570.52;1660534;86;21013;-76
2021/05/22 08:40:26;;;;;;;1.65;1.00;;;;;;;20.04;47.29;101565.56;1660692;86;20981;-73
2021/05/22 08:42:54;;;;;;;1.67;1.05;;;;;;;20.14;45.11;101562.44;1660608;86;21169;-72
2021/05/22 08:45:23;;;;;;;2.72;1.02;;;;;;;20.22;44.33;101567.01;1660380;86;21065;-71
2021/05/22 08:47:53;;;;;;;3.15;0.90;;;;;;;20.26;42.39;101568.41;1660423;86;20886;-74
2021/05/22 08:50:21;;;;;;;4.17;1.00;;;;;;;20.26;42.46;101564.45;1660587;86;20973;-73
2021/05/22 08:52:49;;;;;;;4.78;1.00;;;;;;;20.30;43.03;101551.34;1660423;86;21583;-76
2021/05/22 08:55:16;;;;;;;1.60;0.88;;;;;;;20.34;42.93;101541.70;1662442;86;21103;-71
2021/05/22 08:57:44;;;;;;;1.07;0.95;;;;;;;20.41;42.70;101553.34;1662369;86;20993;-73
2021/05/22 09:00:14;;;;;;;1.25;0.72;;;;;;;20.48;40.75;101542.57;1662041;86;20969;-75
2021/05/22 09:02:44;;;;;;;2.40;0.90;;;;;;;20.50;42.01;101541.09;1661506;86;21017;-74
2021/05/22 09:05:27;;;;;;;1.50;0.90;;;;;;;20.57;40.33;101540.87;1662057;86;36292;-76
2021/05/22 09:07:59;;;;;;;3.02;0.95;;;;;;;20.63;40.49;101536.33;1663341;86;21105;-76
2021/05/22 09:10:29;;;;;;;1.77;1.17;;;;;;;20.62;40.65;101530.70;1663031;86;21009;-76
2021/05/22 09:12:59;;;;;;;3.80;1.00;;;;;;;20.67;42.10;101530.28;1660562;86;20976;-77
2021/05/22 09:15:32;;;;;;;1.98;0.70;;;;;;;20.83;42.75;101535.28;1660687;86;21013;-73
2021/05/22 09:18:03;;;;;;;1.27;1.00;;;;;;;21.00;42.33;101528.36;1660331;86;20957;-70
2021/05/22 09:20:33;;;;;;;1.60;0.70;;;;;;;21.14;40.99;101530.55;1659751;86;21111;-71
2021/05/22 09:23:15;;;;;;;3.85;0.90;;;;;;;21.25;41.16;101531.64;1660512;86;21606;-72
2021/05/22 09:25:54;;;;;;;2.12;0.90;;;;;;;21.30;39.66;101530.72;1660549;86;21072;-70
2021/05/22 09:28:26;;;;;;;2.52;1.10;;;;;;;21.26;40.07;101524.56;1660755;86;21052;-70
2021/05/22 09:30:53;;;;;;;;;;;;;;;21.31;38.67;101521.00;1663046;86;20938;-72
2021/05/22 09:33:25;;;;;;;1.10;1.00;;;;;;;21.23;38.38;101528.33;1659983;86;20153;-69
2021/05/22 09:36:04;;;;;;;1.35;1.00;;;;;;;21.22;37.77;101522.70;1660073;86;21052;-71
2021/05/22 09:38:47;;;;;;;5.25;1.20;;;;;;;21.20;37.49;101520.71;1660479;86;21029;-73
2021/05/22 09:41:25;;;;;;;0.88;0.85;;;;;;;21.24;38.38;101523.89;1660413;86;21017;-74
2021/05/22 09:44:14;;;;;;;2.52;1.02;;;;;;;21.36;38.32;101510.32;1660563;86;20997;-79
2021/05/22 09:46:50;;;;;;;1.47;1.10;;;;;;;21.53;38.40;101511.31;1660425;86;21118;-73
2021/05/22 09:49:28;;;;;;;2.83;0.90;;;;;;;21.57;36.02;101506.04;1660446;86;21502;-74
2021/05/22 09:52:05;;;;;;;1.95;1.00;;;;;;;21.46;36.67;101503.64;1660488;86;21088;-75
2021/05/22 09:54:52;;;;;;;1.57;0.95;;;;;;;21.58;37.61;101503.75;1660515;86;21044;-73
2021/05/22 09:57:35;;;;;;;3.72;0.90;;;;;;;22.70;35.95;101509.50;1660386;86;20976;-75
2021/05/22 10:00:15;;;;;;;2.08;0.80;;;;;;;24.27;34.05;101499.59;1659850;86;21561;-71
2021/05/22 10:02:56;;;;;;;3.30;0.85;;;;;;;25.19;31.20;101496.22;1660329;86;21020;-77
2021/05/22 10:05:28;;;;;;;1.72;0.85;;;;;;;25.25;31.91;101498.17;1660486;86;21017;-74
2021/05/22 10:07:57;;;;;;;1.05;0.93;;;;;;;25.75;30.91;101486.51;1660315;86;21064;-75
2021/05/22 10:10:31;;;;;;;1.75;0.70;;;;;;;26.41;28.77;101488.87;1660541;86;21033;-72
2021/05/22 10:12:58;;;;;;;5.00;1.22;;;;;;;26.74;28.11;101486.11;1653767;84;21125;-76
2021/05/22 10:15:25;;;;;;;2.60;0.80;;;;;;;27.48;28.45;101483.25;1641480;86;21001;-76
2021/05/22 10:17:53;;;;;;;1.00;0.80;;;;;;;28.42;27.88;101477.39;1660493;86;20993;-75
2021/05/22 10:20:22;;;;;;;1.25;0.80;;;;;;;28.68;26.75;101477.55;1660576;86;21686;-71
2021/05/22 10:22:48;;;;;;;2.35;0.80;;;;;;;28.42;26.04;101473.39;1660526;86;20930;-71
2021/05/22 10:25:15;;;;;;;2.17;0.98;;;;;;;27.81;26.89;101477.70;1660434;86;21096;-74
2021/05/22 10:27:43;;;;;;;1.85;0.90;;;;;;;26.96;27.99;101472.38;1660495;86;21012;-72
2021/05/22 10:30:12;;;;;;;0.85;0.80;;;;;;;26.47;29.37;101468.66;1660450;86;21081;-71
2021/05/22 10:32:39;;;;;;;2.85;0.90;;;;;;;25.87;29.90;101466.97;1660424;86;21496;-76
2021/05/22 10:35:24;;;;;;;2.45;0.98;;;;;;;25.26;31.00;101465.30;1674126;85;20924;-73
2021/05/22 10:37:50;;;;;;;2.65;1.10;;;;;;;24.74;32.69;101464.59;1673921;85;21762;-72
2021/05/22 10:40:41;;;;;;;2.02;1.10;;;;;;;24.47;33.79;101461.57;1677210;85;20929;-75
2021/05/22 10:43:08;;;;;;;1.20;1.10;;;;;;;24.41;33.89;101455.62;1656944;85;20889;-74
2021/05/22 10:45:38;;;;;;;1.22;1.12;;;;;;;24.25;34.26;101458.33;1677105;85;21035;-71
2021/05/22 10:48:21;;;;;;;2.37;1.00;;;;;;;24.10;34.76;101447.55;1677224;85;21024;-74
2021/05/22 10:50:48;;;;;;;2.15;0.90;;;;;;;23.93;34.73;101457.88;1671317;84;21121;-81
2021/05/22 10:53:30;;;;;;;3.15;1.00;;;;;;;23.65;35.48;101456.91;1677190;85;20937;-74
2021/05/22 10:56:18;;;;;;;3.37;1.52;;;;;;;23.43;36.11;101459.39;1677273;85;20976;-79
2021/05/22 10:59:09;;;;;;;1.37;1.12;;;;;;;23.32;36.19;101463.67;1677290;85;20964;-75
2021/05/22 11:01:40;;;;;;;3.00;1.30;;;;;;;23.23;36.59;101459.36;1677448;85;20953;-74
2021/05/22 11:04:17;;;;;;;3.22;1.22;;;;;;;23.19;36.33;101454.89;1677434;85;21119;-68
2021/05/22 11:07:00;;;;;;;3.92;1.10;;;;;;;23.22;37.68;101462.98;1677233;85;21716;-73
2021/05/22 11:09:36;;;;;;;1.45;1.10;;;;;;;23.41;36.50;101459.57;1677437;85;21586;-72
2021/05/22 11:12:18;;;;;;;1.15;1.10;;;;;;;23.81;36.87;101448.59;1677048;85;21597;-76
2021/05/22 11:14:50;;;;;;;4.00;1.20;;;;;;;24.18;36.36;101443.11;1677579;85;21601;-71
2021/05/22 11:17:28;;;;;;;2.30;1.30;;;;;;;24.35;36.17;101441.69;1677260;85;21074;-75
2021/05/22 11:20:05;;;;;;;1.52;0.95;;;;;;;24.39;36.70;101439.03;1677079;85;21613;-76
2021/05/22 11:22:55;;;;;;;1.20;1.10;;;;;;;24.15;36.41;101432.01;1677437;85;21004;-72
2021/05/22 11:25:29;;;;;;;1.95;0.90;;;;;;;23.96;36.75;101433.19;1677440;85;21047;-73
2021/05/22 11:28:01;;;;;;;2.22;1.10;;;;;;;23.71;37.39;101434.20;1654746;85;21024;-73
2021/05/22 11:30:33;;;;;;;4.45;0.80;;;;;;;23.60;37.50;101433.23;1677462;85;21160;-78
2021/05/22 11:33:01;;;;;;;1.45;0.95;;;;;;;23.53;37.30;101428.27;1677138;85;21135;-71
2021/05/22 11:35:40;;;;;;;1.12;0.90;;;;;;;23.56;37.53;101431.41;1677220;85;21084;-76